createdAt,value
2023-03-23T15:57:56.651Z,2.20
2023-03-23T16:00:29.688Z,2.60
2023-03-23T16:03:05.059Z,2.30
2023-03-23T16:05:34.285Z,2.40
2023-03-23T16:08:02.309Z,2.50
2023-03-23T16:10:30.387Z,2.60
2023-03-23T16:12:58.197Z,2.10
2023-03-23T16:15:26.155Z,2.20
2023-03-23T16:17:53.884Z,2.20
2023-03-23T16:20:23.341Z,1.90
2023-03-23T16:22:52.146Z,2.80
2023-03-23T16:25:19.884Z,2.70
2023-03-23T16:27:52.436Z,3.50
2023-03-23T16:30:22.893Z,2.30
2023-03-23T16:32:54.183Z,2.00
2023-03-23T16:35:23.142Z,2.50
2023-03-23T16:38:08.532Z,2.40
2023-03-23T16:40:37.691Z,2.20
2023-03-23T16:43:08.909Z,2.50
2023-03-23T16:45:39.087Z,2.90
2023-03-23T16:48:10.001Z,2.80
2023-03-23T16:50:38.851Z,2.50
2023-03-23T16:53:08.508Z,2.70
2023-03-23T16:55:37.695Z,2.90
2023-03-23T16:58:16.505Z,3.20
2023-03-23T17:00:50.002Z,3.50
2023-03-23T17:03:19.277Z,2.80
2023-03-23T17:05:51.982Z,2.90
2023-03-23T17:08:22.308Z,2.70
2023-03-23T17:10:50.529Z,2.90
2023-03-23T17:13:18.618Z,2.90
2023-03-23T17:15:47.421Z,3.00
2023-03-23T17:18:17.239Z,3.00
2023-03-23T17:20:46.791Z,3.50
2023-03-23T17:23:17.140Z,3.20
2023-03-23T17:25:47.035Z,3.40
2023-03-23T17:28:14.789Z,3.80
2023-03-23T17:30:43.972Z,3.30
2023-03-23T17:33:12.614Z,3.00
2023-03-23T17:35:40.568Z,3.20
2023-03-23T17:38:08.627Z,3.00
2023-03-23T17:40:36.374Z,3.10
2023-03-23T17:43:04.681Z,4.10
2023-03-23T17:45:32.389Z,3.60
2023-03-23T17:48:00.516Z,3.70
2023-03-23T17:50:28.746Z,4.60
2023-03-23T17:52:57.193Z,3.90
2023-03-23T17:55:24.971Z,4.70
2023-03-23T17:57:52.762Z,5.10
2023-03-23T18:00:21.332Z,5.40
2023-03-23T18:02:49.317Z,4.00
2023-03-23T18:05:17.263Z,3.30
2023-03-23T18:07:47.610Z,2.80
2023-03-23T18:10:15.783Z,2.60
2023-03-23T18:12:43.876Z,3.20
2023-03-23T18:15:12.263Z,2.60
2023-03-23T18:17:45.314Z,2.20
2023-03-23T18:20:13.942Z,2.70
2023-03-23T18:22:41.790Z,2.30
2023-03-23T18:25:11.331Z,2.30
2023-03-23T18:27:39.838Z,2.40
2023-03-23T18:30:08.554Z,2.10
2023-03-23T18:32:37.782Z,1.80
2023-03-23T18:35:10.773Z,1.70
2023-03-23T18:37:43.573Z,1.50
2023-03-23T18:40:12.171Z,1.40
2023-03-23T18:42:42.297Z,1.20
2023-03-23T18:45:10.903Z,1.00
2023-03-23T18:47:41.076Z,1.20
2023-03-23T18:50:11.348Z,1.00
2023-03-23T18:52:39.208Z,1.00
2023-03-23T18:55:07.478Z,1.00
2023-03-23T18:57:40.107Z,0.90
2023-03-23T19:00:08.688Z,0.90
2023-03-23T19:02:39.347Z,1.10
2023-03-23T19:05:10.335Z,1.00
2023-03-23T19:07:39.421Z,1.70
2023-03-23T19:12:35.879Z,1.20
2023-03-23T19:15:04.137Z,1.40
2023-03-23T19:17:31.883Z,3.50
2023-03-23T19:19:59.682Z,1.60
2023-03-23T19:22:27.536Z,1.90
2023-03-23T19:24:55.419Z,2.50
2023-03-23T19:27:23.265Z,2.60
2023-03-23T19:29:50.988Z,1.40
2023-03-23T19:32:18.824Z,1.50
2023-03-23T19:34:50.701Z,1.10
2023-03-23T19:37:19.258Z,1.30
2023-03-23T19:39:47.146Z,1.00
2023-03-23T19:42:17.104Z,1.00
2023-03-23T19:44:45.058Z,1.30
2023-03-23T19:47:13.523Z,1.20
2023-03-23T19:49:41.498Z,1.20
2023-03-23T19:52:12.586Z,1.00
2023-03-23T19:54:42.354Z,1.10
2023-03-23T19:57:10.845Z,1.40
2023-03-23T19:59:39.314Z,2.30
2023-03-23T20:02:08.027Z,1.50
2023-03-23T20:04:36.481Z,1.50
2023-03-23T20:07:07.452Z,1.30
2023-03-23T20:09:38.014Z,1.70
2023-03-23T20:12:06.919Z,1.20
2023-03-23T20:14:36.919Z,1.30
2023-03-23T20:17:06.037Z,2.00
2023-03-23T20:19:36.455Z,2.20
2023-03-23T20:22:04.584Z,2.50
2023-03-23T20:24:32.449Z,2.50
2023-03-23T20:27:03.213Z,2.70
2023-03-23T20:29:31.651Z,2.10
2023-03-23T20:31:59.513Z,2.40
2023-03-23T20:34:31.031Z,2.20
2023-03-23T20:37:01.813Z,2.70
2023-03-23T20:39:32.250Z,2.30
2023-03-23T20:42:03.082Z,3.30
2023-03-23T20:44:36.005Z,2.60
2023-03-23T20:47:04.590Z,2.60
2023-03-23T20:49:34.948Z,2.60
2023-03-23T20:52:06.006Z,2.30
2023-03-23T20:54:33.740Z,2.10
2023-03-23T20:57:02.636Z,2.50
2023-03-23T20:59:30.497Z,1.90
2023-03-23T21:01:58.542Z,2.30
2023-03-23T21:04:27.622Z,2.00
2023-03-23T21:06:56.011Z,1.90
2023-03-23T21:09:25.265Z,2.40
2023-03-23T21:11:53.656Z,2.30
2023-03-23T21:14:22.280Z,2.30
2023-03-23T21:16:50.324Z,2.40
2023-03-23T21:19:19.569Z,2.90
2023-03-23T21:21:55.722Z,2.50
2023-03-23T21:24:29.906Z,2.40
2023-03-23T21:27:00.314Z,2.70
2023-03-23T21:29:31.763Z,2.70
2023-03-23T21:32:08.372Z,3.90
2023-03-23T21:34:38.034Z,2.40
2023-03-23T21:37:05.973Z,2.90
2023-03-23T21:39:34.711Z,2.70
2023-03-23T21:42:04.717Z,3.40
2023-03-23T21:44:37.094Z,3.40
2023-03-23T21:47:06.473Z,3.60
2023-03-23T21:49:34.552Z,2.40
2023-03-23T21:52:08.466Z,2.70
2023-03-23T21:54:36.308Z,2.90
2023-03-23T21:57:04.327Z,2.70
2023-03-23T21:59:32.167Z,3.20
2023-03-23T22:02:01.927Z,3.40
2023-03-23T22:04:29.949Z,3.00
2023-03-23T22:06:57.858Z,2.70
2023-03-23T22:09:26.421Z,3.00
2023-03-23T22:11:54.251Z,2.80
2023-03-23T22:14:23.104Z,2.50
2023-03-23T22:16:51.136Z,2.80
2023-03-23T22:19:19.408Z,2.50
2023-03-23T22:21:47.427Z,2.70
2023-03-23T22:24:16.134Z,2.40
2023-03-23T22:26:43.938Z,2.80
2023-03-23T22:29:12.374Z,3.00
2023-03-23T22:31:40.469Z,2.70
2023-03-23T22:34:08.467Z,2.40
2023-03-23T22:36:36.838Z,2.60
2023-03-23T22:39:05.823Z,2.50
2023-03-23T22:41:37.199Z,2.90
2023-03-23T22:44:07.848Z,2.40
2023-03-23T22:46:35.799Z,2.70
2023-03-23T22:49:03.589Z,2.30
2023-03-23T22:51:31.954Z,1.90
2023-03-23T22:53:59.739Z,2.80
2023-03-23T22:56:27.836Z,2.30
2023-03-23T22:58:58.811Z,2.50
2023-03-23T23:01:27.591Z,2.40
2023-03-23T23:03:55.718Z,2.40
2023-03-23T23:06:24.957Z,2.00
2023-03-23T23:08:53.081Z,3.40
2023-03-23T23:11:22.881Z,2.40
2023-03-23T23:13:51.140Z,1.90
2023-03-23T23:16:22.093Z,2.50
2023-03-23T23:18:50.228Z,2.30
2023-03-23T23:21:21.280Z,2.30
2023-03-23T23:23:51.838Z,2.30
2023-03-23T23:26:20.579Z,2.50
2023-03-23T23:28:48.975Z,2.60
2023-03-23T23:31:22.550Z,2.40
2023-03-23T23:33:50.681Z,2.50
2023-03-23T23:36:19.230Z,2.50
2023-03-23T23:38:47.097Z,3.40
2023-03-23T23:41:15.627Z,2.60
2023-03-23T23:43:43.449Z,3.40
2023-03-23T23:46:11.803Z,2.80
2023-03-23T23:48:39.767Z,2.40
2023-03-23T23:51:08.119Z,2.30
2023-03-23T23:53:35.923Z,2.20
2023-03-23T23:56:04.504Z,2.60
2023-03-23T23:58:32.348Z,2.40
